Time;durP1;ratioP1;P1;durP2;ratioP2;P2;SDS_P1;SDS_P2;PMS_P1;PMS_P2;Temp;Humidity;BMP_temperature;BMP_pressure;BME280_temperature;BME280_humidity;BME280_pressure;Samples;Min_cycle;Max_cycle;Signal;HPM_P1;HPM_P2
2022/11/18 00:01:54;;;;;;;;;37.67;32.67;;;;;6.78;100.00;98203.53;6282292;20;3619100;-60
2022/11/18 00:04:24;;;;;;;;;43.67;34.00;;;;;6.92;100.00;98202.56;6310563;20;3639206;-59
2022/11/18 00:06:52;;;;;;;;;39.67;36.00;;;;;6.98;100.00;98202.16;6314777;20;3601288;-60
2022/11/18 00:09:22;;;;;;;;;36.33;28.00;;;;;7.07;100.00;98214.81;6276597;20;3606528;-60
2022/11/18 00:14:39;;;;;;;;;37.00;30.00;;;;;7.03;100.00;98218.69;6279306;20;3613779;-60
2022/11/18 00:17:07;;;;;;;;;31.00;28.00;;;;;6.93;100.00;98223.81;6314194;20;3595041;-60
2022/11/18 00:19:39;;;;;;;;;37.00;26.33;;;;;7.01;100.00;98232.13;6276042;20;3597197;-61
2022/11/18 00:22:12;;;;;;;;;39.67;34.33;;;;;6.87;100.00;98223.38;6312557;20;3601381;-60
2022/11/18 00:24:40;;;;;;;;;29.00;25.50;;;;;6.95;100.00;98219.22;6279435;20;2842092;-60
2022/11/18 00:27:10;;;;;;;;;35.33;30.00;;;;;6.66;100.00;98210.59;6280878;20;2860879;-59
2022/11/18 00:29:38;;;;;;;;;37.00;32.00;;;;;6.40;100.00;98198.16;6314528;20;3607571;-60
2022/11/18 00:32:07;;;;;;;;;40.00;31.67;;;;;6.67;100.00;98198.09;6283921;20;3617991;-60
2022/11/18 00:34:36;;;;;;;;;48.33;35.33;;;;;6.61;100.00;98191.38;6280723;20;3622256;-60
2022/11/18 00:37:04;;;;;;;;;42.67;34.33;;;;;6.63;100.00;98191.25;6282001;20;3619053;-60
2022/11/18 00:39:34;;;;;;;;;40.33;36.67;;;;;6.85;100.00;98198.63;6277004;20;2858669;-60
2022/11/18 00:44:51;;;;;;;;;41.67;36.00;;;;;6.76;100.00;98198.28;6275953;20;3626887;-60
2022/11/18 00:47:19;;;;;;;;;36.33;31.00;;;;;6.82;100.00;98200.56;6310338;20;3607532;-60
2022/11/18 00:49:49;;;;;;;;;42.00;31.67;;;;;6.85;100.00;98193.28;6280492;20;3622141;-59
2022/11/18 00:52:17;;;;;;;;;32.00;26.00;;;;;6.62;100.00;98192.22;6310796;20;2856588;-59
2022/11/18 00:54:46;;;;;;;;;50.67;36.67;;;;;6.79;100.00;98195.44;6280117;20;3629560;-61
2022/11/18 00:57:15;;;;;;;;;43.33;35.33;;;;;6.62;100.00;98187.75;6275248;20;3621159;-60
2022/11/18 00:59:45;;;;;;;;;39.67;34.67;;;;;6.57;100.00;98185.38;6306387;20;2855707;-60
2022/11/18 01:02:14;;;;;;;;;45.67;34.33;;;;;6.44;100.00;98183.69;6312361;20;3634687;-59
2022/11/18 01:04:43;;;;;;;;;43.00;35.67;;;;;6.56;100.00;98177.53;6307426;20;3601300;-60
2022/11/18 01:07:13;;;;;;;;;53.67;37.00;;;;;6.65;100.00;98176.88;6273773;20;3619009;-60
2022/11/18 01:09:41;;;;;;;;;42.50;37.00;;;;;6.78;100.00;98177.69;6307835;20;2857649;-60
2022/11/18 01:14:59;;;;;;;;;41.33;37.33;;;;;6.79;100.00;98174.09;6315757;20;3599598;-60
2022/11/18 01:17:30;;;;;;;;;37.50;31.00;;;;;6.63;100.00;98176.09;6272485;20;2866031;-60
2022/11/18 01:19:59;;;;;;;;;48.33;38.00;;;;;6.58;100.00;98178.25;6281719;20;3606618;-60
2022/11/18 01:22:29;;;;;;;;;36.00;33.33;;;;;6.73;100.00;98177.16;6274767;20;3593016;-61
2022/11/18 01:24:58;;;;;;;;;47.00;38.00;;;;;6.53;100.00;98167.91;6308601;20;2856583;-60
2022/11/18 01:27:27;;;;;;;;;56.00;42.00;;;;;6.43;100.00;98174.00;6279825;20;3622158;-61
2022/11/18 01:29:57;;;;;;;;;45.00;37.67;;;;;6.63;100.00;98176.09;6308004;20;2863976;-59
2022/11/18 01:32:27;;;;;;;;;39.00;36.33;;;;;6.66;100.00;98173.25;6313086;20;3619051;-60
2022/11/18 01:34:57;;;;;;;;;41.00;34.33;;;;;6.81;100.00;98160.63;6276694;20;3601424;-61
2022/11/18 01:37:26;;;;;;;;;47.00;35.33;;;;;6.70;100.00;98174.72;6307153;20;3600277;-60
2022/11/18 01:39:56;;;;;;;;;46.33;37.67;;;;;6.75;100.00;98164.59;6307730;20;3609813;-60
2022/11/18 01:42:25;;;;;;;;;45.00;39.00;;;;;6.82;100.00;98163.19;6316694;20;3599242;-60
2022/11/18 01:45:32;;;;;;;;;46.00;39.00;;;;;6.80;100.00;98165.13;6312079;20;2866976;-60
2022/11/18 01:48:22;;;;;;;;;46.33;36.67;;;;;6.67;100.00;98153.59;6311346;20;3627384;-60
2022/11/18 01:51:05;;;;;;;;;51.67;38.00;;;;;6.65;100.00;98154.69;6311413;20;3611135;-60
2022/11/18 01:53:42;;;;;;;;;39.33;33.33;;;;;6.59;100.00;98163.97;6311346;20;3609695;-60
2022/11/18 01:56:20;;;;;;;;;46.50;38.50;;;;;6.69;100.00;98173.03;6312950;20;2850400;-60
2022/11/18 01:59:02;;;;;;;;;55.33;41.33;;;;;6.58;100.00;98172.91;6280457;20;3612743;-60
2022/11/18 02:01:31;;;;;;;;;48.50;38.00;;;;;6.61;100.00;98167.38;6313123;20;2847141;-60
2022/11/18 02:04:00;;;;;;;;;57.00;43.00;;;;;6.56;100.00;98173.03;6281832;20;2861712;-60
2022/11/18 02:06:29;;;;;;;;;56.33;40.67;;;;;6.56;100.00;98173.03;6283573;20;3616907;-60
2022/11/18 02:08:59;;;;;;;;;55.50;39.50;;;;;6.45;100.00;98177.38;6310639;20;2868116;-60
2022/11/18 02:14:32;;;;;;;;;50.67;39.33;;;;;6.66;100.00;98175.91;6313888;20;2856608;-60
2022/11/18 02:17:23;;;;;;;;;54.67;41.33;;;;;6.75;100.00;98183.25;6312640;20;3613820;-60
2022/11/18 02:20:25;;;;;;;;;50.00;39.50;;;;;6.70;100.00;98185.41;6311819;20;2864872;-60
2022/11/18 02:23:48;;;;;;;;;58.00;44.00;;;;;6.59;100.00;98186.16;6283718;20;2881644;-60
2022/11/18 02:26:35;;;;;;;;;55.00;42.67;;;;;6.62;100.00;98192.22;6313038;20;3607582;-60
2022/11/18 02:29:23;;;;;;;;;57.67;42.00;;;;;6.64;100.00;98195.66;6312037;20;3626480;-59
2022/11/18 02:32:11;;;;;;;;;53.33;42.00;;;;;6.60;100.00;98181.66;6311190;20;3609617;-60
2022/11/18 02:34:59;;;;;;;;;54.00;39.33;;;;;6.58;100.00;98170.25;6314844;20;2850438;-60
2022/11/18 02:37:55;;;;;;;;;53.00;42.00;;;;;6.47;100.00;98157.66;6307333;20;2852485;-60
2022/11/18 02:40:51;;;;;;;;;52.67;42.33;;;;;6.46;100.00;98163.13;6278906;20;2862861;-61
2022/11/18 02:44:05;;;;;;;;;61.00;44.00;;;;;6.39;100.00;98165.34;6309396;20;3635665;-61
2022/11/18 02:46:39;;;;;;;;;51.50;39.50;;;;;6.47;100.00;98155.00;6307217;20;2855590;-61
2022/11/18 02:49:20;;;;;;;;;46.00;37.50;;;;;6.47;100.00;98146.16;6278488;20;2849368;-61
2022/11/18 02:51:51;;;;;;;;;30.00;26.50;;;;;6.23;100.00;98149.53;6277721;20;2840430;-61
2022/11/18 02:54:23;;;;;;;;;45.00;39.50;;;;;6.17;100.00;98133.16;6278370;20;2840881;-60
2022/11/18 02:56:54;;;;;;;;;57.33;42.67;;;;;6.10;100.00;98101.56;6277704;20;3631713;-60
2022/11/18 02:59:24;;;;;;;;;52.67;38.00;;;;;6.18;100.00;98109.03;6311319;20;2862838;-60
2022/11/18 03:01:53;;;;;;;;;57.33;41.33;;;;;6.21;100.00;98111.47;6311552;20;2881652;-60
2022/11/18 03:04:26;;;;;;;;;59.67;45.00;;;;;6.42;100.00;98117.13;6313762;20;3630582;-60
2022/11/18 03:07:30;;;;;;;;;48.00;40.00;;;;;6.43;100.00;98115.34;6309574;20;2849400;-60
2022/11/18 03:10:01;;;;;;;;;55.00;43.00;;;;;6.18;100.00;98114.38;6278055;20;2858601;-60
2022/11/18 03:13:25;;;;;;;;;52.67;41.00;;;;;6.41;100.00;98114.59;6309067;20;2865908;-60
2022/11/18 03:16:13;;;;;;;;;59.33;44.33;;;;;6.23;100.00;98120.22;6308882;20;3611738;-60
2022/11/18 03:19:19;;;;;;;;;63.33;46.00;;;;;6.48;100.00;98110.53;6311693;20;3620063;-61
2022/11/18 03:22:09;;;;;;;;;47.00;42.50;;;;;6.56;100.00;98110.84;6312267;20;2862495;-60
2022/11/18 03:24:50;;;;;;;;;57.50;45.00;;;;;6.47;100.00;98111.50;6278455;20;2856654;-61
2022/11/18 03:27:53;;;;;;;;;56.67;42.00;;;;;6.60;100.00;98115.00;6276249;20;2876390;-61
2022/11/18 03:30:24;;;;;;;;;50.00;39.00;;;;;6.34;100.00;98111.50;6311540;20;2802426;-60
2022/11/18 03:33:20;;;;;;;;;58.33;42.00;;;;;6.40;100.00;98107.53;6279395;20;3621078;-61
2022/11/18 03:35:53;;;;;;;;;59.00;41.67;;;;;6.34;100.00;98112.34;6309715;20;2875477;-60
2022/11/18 03:38:36;;;;;;;;;61.00;46.00;;;;;6.36;100.00;98114.91;6311894;20;2875305;-61
2022/11/18 03:41:10;;;;;;;;;58.00;46.00;;;;;6.27;100.00;98113.75;6307963;20;2864943;-59
2022/11/18 03:43:52;;;;;;;;;59.67;46.33;;;;;6.33;100.00;98118.63;6310673;20;3612806;-60
2022/11/18 03:46:46;;;;;;;;;60.67;46.67;;;;;6.30;100.00;98123.34;6309050;20;3615964;-60
2022/11/18 03:49:38;;;;;;;;;66.00;47.00;;;;;6.36;100.00;98133.56;6310906;20;3644406;-60
2022/11/18 03:52:19;;;;;;;;;62.00;51.33;;;;;6.34;100.00;98132.81;6310485;20;3626417;-61
2022/11/18 03:54:54;;;;;;;;;66.33;46.00;;;;;6.49;100.00;98125.56;6310791;20;2876467;-61
2022/11/18 03:57:55;;;;;;;;;69.00;50.67;;;;;6.51;100.00;98121.00;6307906;20;3651393;-61
2022/11/18 04:00:32;;;;;;;;;60.50;45.00;;;;;6.38;100.00;98121.00;6312074;20;3496103;-60
2022/11/18 04:03:02;;;;;;;;;57.33;43.00;;;;;6.31;100.00;98117.88;6308564;20;3620150;-61
2022/11/18 04:05:39;;;;;;;;;60.67;43.67;;;;;6.36;100.00;98129.09;6307275;20;3634619;-60
2022/11/18 04:08:22;;;;;;;;;60.00;44.00;;;;;6.42;100.00;98124.28;6308104;20;2819124;-61
2022/11/18 04:12:01;;;;;;;;;57.67;39.33;;;;;6.01;100.00;98112.03;6279003;20;3623246;-61
2022/11/18 04:14:07;;;;;;;;;61.33;42.00;;;;;6.18;100.00;98081.53;6310045;20;2886822;-60
2022/11/18 04:16:49;;;;;;;;;56.67;43.33;;;;;6.17;100.00;98078.03;6307400;20;2859870;-61
2022/11/18 04:19:18;;;;;;;;;55.00;45.00;;;;;6.13;100.00;98073.84;6309496;20;2863895;-61
2022/11/18 04:21:49;;;;;;;;;56.00;41.67;;;;;6.07;100.00;98082.28;6279659;20;2867014;-60
2022/11/18 04:24:19;;;;;;;;;61.00;45.00;;;;;6.09;100.00;98080.38;6312508;20;3631018;-60
2022/11/18 04:26:48;;;;;;;;;64.67;46.67;;;;;6.03;100.00;98079.00;6306444;20;3629451;-61
2022/11/18 04:29:17;;;;;;;;;47.50;38.00;;;;;5.87;100.00;98089.81;6309267;20;2845804;-60
2022/11/18 04:31:46;;;;;;;;;59.00;44.00;;;;;5.90;100.00;98086.94;6278160;20;2873287;-60
2022/11/18 04:34:16;;;;;;;;;60.67;47.33;;;;;5.84;100.00;98078.50;6279892;20;2878493;-60
2022/11/18 04:36:45;;;;;;;;;73.33;56.67;;;;;5.96;100.00;98074.19;6308776;20;3629419;-61
2022/11/18 04:39:16;;;;;;;;;62.00;43.00;;;;;5.67;100.00;98082.31;6308829;20;3628388;-61
2022/11/18 04:41:55;;;;;;;;;54.00;44.00;;;;;5.76;100.00;98076.34;6308213;20;2864936;-60
2022/11/18 04:44:33;;;;;;;;;63.33;45.33;;;;;5.72;100.00;98072.22;6310817;20;3617966;-61
2022/11/18 04:47:05;;;;;;;;;62.00;45.00;;;;;5.87;100.00;98081.81;6304730;20;3617994;-60
2022/11/18 04:49:35;;;;;;;;;68.00;45.00;;;;;6.00;100.00;98078.31;6311976;20;3636893;-61
2022/11/18 04:52:05;;;;;;;;;60.67;46.67;;;;;5.85;100.00;98067.75;6307164;20;2876644;-60
2022/11/18 04:54:35;;;;;;;;;63.00;46.33;;;;;5.92;100.00;98074.38;6306155;20;3632572;-60
2022/11/18 04:57:04;;;;;;;;;57.00;42.00;;;;;5.91;100.00;98077.13;6302724;20;3619066;-61
2022/11/18 04:59:34;;;;;;;;;61.33;44.67;;;;;5.90;100.00;98073.63;6311435;20;3627810;-58
2022/11/18 05:02:03;;;;;;;;;47.50;41.00;;;;;5.72;100.00;98077.53;6309390;20;2847157;-61
2022/11/18 05:04:34;;;;;;;;;62.00;45.67;;;;;5.91;100.00;98075.31;6282042;20;2870134;-60
2022/11/18 05:07:06;;;;;;;;;59.00;43.33;;;;;5.80;100.00;98077.88;6312391;20;3613817;-60
2022/11/18 05:09:36;;;;;;;;;65.00;46.33;;;;;6.00;100.00;98089.84;6276065;20;3638933;-60
2022/11/18 05:15:01;;;;;;;;;55.33;46.00;;;;;6.14;100.00;98112.88;6309412;20;2858618;-60
2022/11/18 05:17:30;;;;;;;;;62.33;43.33;;;;;6.00;100.00;98105.81;6314911;20;3641611;-60
2022/11/18 05:20:00;;;;;;;;;58.00;45.67;;;;;6.09;100.00;98102.53;6313685;20;2861012;-61
2022/11/18 05:22:29;;;;;;;;;63.67;45.67;;;;;6.13;100.00;98116.50;6315997;20;3616041;-60
2022/11/18 05:24:59;;;;;;;;;61.67;44.33;;;;;6.10;100.00;98101.56;6313292;20;3625427;-61
2022/11/18 05:27:28;;;;;;;;;59.00;45.00;;;;;6.00;100.00;98094.31;6313697;20;3622171;-60
2022/11/18 05:29:57;;;;;;;;;58.50;45.50;;;;;6.09;100.00;98088.38;6314955;20;2854588;-61
2022/11/18 05:32:26;;;;;;;;;58.00;46.00;;;;;6.27;100.00;98091.56;6285251;20;2877346;-61
2022/11/18 05:34:56;;;;;;;;;62.33;43.33;;;;;5.91;100.00;98085.97;6315463;20;3641998;-61
2022/11/18 05:37:25;;;;;;;;;53.67;39.33;;;;;6.11;100.00;98091.78;6313916;20;2867000;-61
2022/11/18 05:39:55;;;;;;;;;60.00;44.67;;;;;6.06;100.00;98083.25;6313531;20;3621166;-61
2022/11/18 05:45:14;;;;;;;;;55.67;41.67;;;;;5.80;100.00;98085.84;6315163;20;3621093;-61
2022/11/18 05:47:59;;;;;;;;;55.00;43.00;;;;;5.99;100.00;98089.97;6310014;20;3617959;-61
2022/11/18 05:50:30;;;;;;;;;56.33;42.00;;;;;6.04;100.00;98090.50;6315008;20;3615904;-60
2022/11/18 05:53:01;;;;;;;;;65.00;50.67;;;;;5.98;100.00;98097.09;6311747;20;3623315;-60
2022/11/18 05:55:44;;;;;;;;;60.67;43.67;;;;;6.10;100.00;98090.06;6313822;20;3639862;-61
2022/11/18 05:58:14;;;;;;;;;68.33;50.67;;;;;5.96;100.00;98095.50;6311949;20;3642981;-61
2022/11/18 06:00:48;;;;;;;;;59.67;45.33;;;;;6.14;100.00;98087.09;6306121;20;3612747;-61
2022/11/18 06:03:27;;;;;;;;;60.67;48.33;;;;;6.19;100.00;98081.44;6313247;20;3609666;-61
2022/11/18 06:06:03;;;;;;;;;57.00;44.33;;;;;5.99;100.00;98087.28;6310859;20;3620166;-60
2022/11/18 06:08:46;;;;;;;;;52.33;43.33;;;;;6.25;100.00;98094.34;6315863;20;2859689;-60
2022/11/18 06:11:19;;;;;;;;;59.33;45.33;;;;;5.86;100.00;98085.44;6312748;20;3621115;-60
2022/11/18 06:14:02;;;;;;;;;54.00;39.67;;;;;6.06;100.00;98077.94;6313825;20;2871243;-60
2022/11/18 06:16:34;;;;;;;;;57.33;45.00;;;;;6.11;100.00;98081.97;6313115;20;3619000;-61
2022/11/18 06:19:09;;;;;;;;;61.00;47.67;;;;;6.17;100.00;98086.03;6310066;20;3616927;-60
2022/11/18 06:21:38;;;;;;;;;66.00;49.00;;;;;6.20;100.00;98091.13;6313030;20;3647147;-61
2022/11/18 06:24:08;;;;;;;;;64.67;45.00;;;;;6.29;100.00;98095.84;6314200;20;3638955;-61
2022/11/18 06:26:41;;;;;;;;;61.00;45.33;;;;;6.06;100.00;98086.75;6313862;20;3630494;-60
2022/11/18 06:29:15;;;;;;;;;63.00;47.00;;;;;6.00;100.00;98095.16;6311164;20;3632042;-60
2022/11/18 06:31:49;;;;;;;;;60.00;42.00;;;;;5.94;100.00;98072.47;6311531;20;3612827;-60
2022/11/18 06:34:19;;;;;;;;;63.67;46.33;;;;;6.15;100.00;98082.59;6312027;20;3632576;-60
2022/11/18 06:36:48;;;;;;;;;64.33;48.00;;;;;6.30;100.00;98081.53;6314609;20;3639261;-60
2022/11/18 06:39:18;;;;;;;;;60.00;43.33;;;;;6.13;100.00;98080.06;6313530;20;3642365;-60
2022/11/18 06:41:48;;;;;;;;;65.00;45.33;;;;;6.13;100.00;98069.41;6312308;20;3633723;-60
2022/11/18 06:44:17;;;;;;;;;57.33;44.33;;;;;6.26;100.00;98074.72;6313734;20;3603445;-60
2022/11/18 06:46:56;;;;;;;;;66.67;46.00;;;;;6.17;100.00;98075.38;6311989;20;3642061;-60
2022/11/18 06:49:27;;;;;;;;;62.00;45.00;;;;;6.26;100.00;98068.53;6312150;20;3634601;-60
2022/11/18 06:51:56;;;;;;;;;57.67;45.00;;;;;6.27;100.00;98062.25;6314883;20;3617951;-60
2022/11/18 06:54:26;;;;;;;;;68.33;45.67;;;;;6.13;100.00;98061.41;6307970;20;3647131;-60
2022/11/18 06:56:55;;;;;;;;;65.67;48.33;;;;;6.11;100.00;98065.16;6280853;20;3635664;-60
2022/11/18 06:59:25;;;;;;;;;58.67;47.00;;;;;6.31;100.00;98067.25;6312739;20;2875365;-61
2022/11/18 07:01:55;;;;;;;;;58.00;45.33;;;;;6.31;100.00;98077.06;6313601;20;3625378;-60
2022/11/18 07:04:25;;;;;;;;;64.67;51.00;;;;;6.00;100.00;98084.50;6315137;20;3633570;-60
2022/11/18 07:06:54;;;;;;;;;67.00;46.00;;;;;6.30;100.00;98096.69;6312463;20;3645066;-60
2022/11/18 07:09:24;;;;;;;;;57.67;38.00;;;;;6.34;100.00;98104.34;6313768;20;3632538;-60
2022/11/18 07:11:56;;;;;;;;;56.00;42.00;;;;;6.35;100.00;98102.56;6313833;20;2858717;-61
2022/11/18 07:14:25;;;;;;;;;53.50;42.00;;;;;6.30;100.00;98092.19;6314847;20;2847216;-60
2022/11/18 07:16:55;;;;;;;;;60.33;44.67;;;;;6.47;100.00;98071.50;6280964;20;2865603;-61
2022/11/18 07:19:25;;;;;;;;;66.00;49.00;;;;;6.36;100.00;98080.25;6315299;20;3646073;-61
2022/11/18 07:22:01;;;;;;;;;63.00;45.33;;;;;6.26;100.00;98077.38;6314014;20;3621122;-60
2022/11/18 07:24:30;;;;;;;;;64.33;48.00;;;;;6.34;100.00;98083.00;6307871;20;3630479;-62
2022/11/18 07:27:00;;;;;;;;;62.00;48.67;;;;;6.01;100.00;98080.06;6312946;20;3604545;-61
2022/11/18 07:29:28;;;;;;;;;54.50;41.00;;;;;6.23;100.00;98074.94;6312391;20;2864890;-59
2022/11/18 07:31:58;;;;;;;;;57.67;44.33;;;;;6.21;100.00;98082.16;6282324;20;3620142;-60
2022/11/18 07:34:27;;;;;;;;;64.00;44.00;;;;;6.43;100.00;98070.88;6312958;20;3630473;-60
2022/11/18 07:36:57;;;;;;;;;59.00;47.00;;;;;6.48;100.00;98070.56;6311661;20;2849391;-61
2022/11/18 07:39:26;;;;;;;;;59.33;44.00;;;;;6.42;100.00;98070.97;6308883;20;3619032;-60
2022/11/18 07:41:56;;;;;;;;;53.33;43.00;;;;;6.26;100.00;98064.03;6312152;20;2844007;-60
2022/11/18 07:44:25;;;;;;;;;68.33;49.67;;;;;6.45;100.00;98058.28;6312395;20;3634644;-61
2022/11/18 07:46:55;;;;;;;;;57.33;44.33;;;;;6.51;100.00;98057.84;6310508;20;3605472;-60
2022/11/18 07:49:23;;;;;;;;;54.50;44.50;;;;;6.31;100.00;98058.41;6309485;20;2864911;-61
2022/11/18 07:51:53;;;;;;;;;54.00;41.33;;;;;6.34;100.00;98053.69;6280465;20;2860911;-61
2022/11/18 07:54:22;;;;;;;;;57.00;46.50;;;;;6.32;100.00;98052.97;6308774;20;2853391;-60
2022/11/18 07:56:52;;;;;;;;;67.67;50.33;;;;;6.49;100.00;98045.59;6276698;20;3626339;-60
2022/11/18 07:59:21;;;;;;;;;71.00;53.33;;;;;6.42;100.00;98044.31;6308631;20;3634681;-60
2022/11/18 08:01:51;;;;;;;;;63.00;49.67;;;;;6.57;100.00;98036.06;6311538;20;3622213;-60
2022/11/18 08:04:20;;;;;;;;;66.33;50.00;;;;;6.50;100.00;98025.94;6307885;20;3622251;-60
2022/11/18 08:06:49;;;;;;;;;36.50;30.50;;;;;6.56;100.00;98017.53;6304517;20;2850335;-60
2022/11/18 08:09:18;;;;;;;;;62.33;46.33;;;;;6.60;100.00;98011.00;6280215;20;3631504;-61
2022/11/18 08:11:48;;;;;;;;;53.33;42.00;;;;;6.47;100.00;98016.34;6313119;20;2859678;-61
2022/11/18 08:14:17;;;;;;;;;55.00;45.50;;;;;6.57;100.00;98028.06;6310878;20;2858669;-61
2022/11/18 08:16:46;;;;;;;;;57.33;42.67;;;;;6.44;100.00;98031.72;6276819;20;2875340;-60
2022/11/18 08:19:16;;;;;;;;;56.33;43.00;;;;;6.55;100.00;98029.16;6310981;20;2871301;-60
2022/11/18 08:21:46;;;;;;;;;65.67;47.67;;;;;6.86;100.00;98029.59;6311151;20;3642951;-60
2022/11/18 08:24:15;;;;;;;;;55.67;41.00;;;;;7.21;100.00;98022.53;6316314;20;3606519;-60
2022/11/18 08:26:44;;;;;;;;;51.50;42.00;;;;;6.84;100.00;98020.84;6312944;20;2862096;-61
2022/11/18 08:29:14;;;;;;;;;57.67;42.67;;;;;6.49;100.00;98017.09;6279742;20;3638869;-60
2022/11/18 08:31:50;;;;;;;;;51.00;38.00;;;;;6.55;100.00;98010.47;6315158;20;2860858;-61
2022/11/18 08:34:20;;;;;;;;;51.33;38.67;;;;;6.69;100.00;97999.69;6279691;20;2853521;-61
2022/11/18 08:36:49;;;;;;;;;37.67;28.33;;;;;6.80;100.00;97998.91;6310264;20;2872266;-60
2022/11/18 08:39:19;;;;;;;;;52.33;42.00;;;;;6.68;100.00;98005.97;6313610;20;2861748;-60
2022/11/18 08:41:49;;;;;;;;;55.00;43.00;;;;;6.69;100.00;98006.81;6313224;20;2864953;-60
2022/11/18 08:44:18;;;;;;;;;60.00;43.67;;;;;6.78;100.00;98024.81;6314163;20;3625251;-60
2022/11/18 08:46:48;;;;;;;;;60.67;46.67;;;;;6.88;100.00;98033.00;6312441;20;3625703;-61
2022/11/18 08:49:17;;;;;;;;;60.00;43.00;;;;;6.71;100.00;98032.41;6311745;20;3601295;-60
2022/11/18 08:51:47;;;;;;;;;59.33;45.67;;;;;6.74;100.00;98052.66;6313104;20;3642990;-60
2022/11/18 08:54:17;;;;;;;;;51.33;42.67;;;;;6.87;100.00;98050.81;6310086;20;3598169;-61
2022/11/18 08:56:49;;;;;;;;;61.33;45.00;;;;;6.81;100.00;98053.94;6310765;20;3626313;-60
2022/11/18 08:59:18;;;;;;;;;61.00;48.00;;;;;6.96;100.00;98051.97;6309719;20;3637754;-61
2022/11/18 09:01:48;;;;;;;;;61.00;48.00;;;;;6.59;100.00;98051.97;6313950;20;3631535;-62
2022/11/18 09:04:18;;;;;;;;;52.00;38.33;;;;;6.47;100.00;98050.16;6311440;20;2862885;-61
2022/11/18 09:06:47;;;;;;;;;53.00;40.00;;;;;6.62;100.00;98049.06;6311062;20;2855586;-61
2022/11/18 09:09:16;;;;;;;;;55.33;40.67;;;;;6.83;100.00;98033.34;6278536;20;2851441;-60
2022/11/18 09:11:46;;;;;;;;;60.00;46.33;;;;;6.34;100.00;98026.19;6311813;20;3624290;-61
2022/11/18 09:14:17;;;;;;;;;63.00;47.33;;;;;6.80;100.00;98021.06;6313648;20;3637758;-60
2022/11/18 09:17:08;;;;;;;;;48.00;42.00;;;;;6.64;100.00;98015.16;6311710;20;2851320;-60
2022/11/18 09:19:37;;;;;;;;;96.50;82.00;;;;;6.63;100.00;97997.44;6272059;20;1935960;-61
2022/11/18 09:22:15;;;;;;;;;3.33;1.33;;;;;6.71;100.00;98005.72;6279708;20;2746232;-59
2022/11/18 09:24:44;;;;;;;;;40.67;35.33;;;;;6.73;100.00;97998.47;6315438;20;3594174;-59
2022/11/18 09:27:13;;;;;;;;;59.67;46.33;;;;;6.65;100.00;97995.53;6281294;20;2868074;-59
2022/11/18 09:29:45;;;;;;;;;41.50;32.00;;;;;6.58;100.00;97992.47;6309335;20;2844283;-59
2022/11/18 09:32:14;;;;;;;;;48.50;38.00;;;;;6.56;100.00;97990.88;6280710;20;2858613;-59
2022/11/18 09:34:44;;;;;;;;;53.33;42.00;;;;;6.47;100.00;97992.38;6281433;20;2847236;-58
2022/11/18 09:37:13;;;;;;;;;31.00;24.50;;;;;6.37;100.00;97989.53;6308292;20;2846137;-59
2022/11/18 09:39:41;;;;;;;;;43.50;38.00;;;;;6.57;100.00;97987.22;6278789;20;2876384;-59
2022/11/18 09:43:02;;;;;;;;;49.33;38.00;;;;;6.24;100.00;97978.03;6282039;20;2851468;-58
2022/11/18 09:45:43;;;;;;;;;35.33;32.33;;;;;6.41;100.00;97981.31;6308651;20;3606696;-59
2022/11/18 09:48:19;;;;;;;;;48.00;33.67;;;;;6.60;100.00;97981.66;6278913;20;3608092;-59
2022/11/18 09:50:49;;;;;;;;;49.00;39.33;;;;;6.44;100.00;97959.75;6311228;20;3590873;-57
2022/11/18 09:53:24;;;;;;;;;48.33;38.00;;;;;6.51;100.00;97958.34;6276573;20;2861802;-59
2022/11/18 09:55:53;;;;;;;;;42.67;35.00;;;;;6.76;100.00;97955.56;6310383;20;3625351;-59
2022/11/18 09:58:44;;;;;;;;;39.50;35.50;;;;;6.91;100.00;97942.06;6280467;20;2843023;-60
2022/11/18 10:01:18;;;;;;;;;31.50;27.50;;;;;6.69;100.00;97943.69;6279052;20;2843157;-59
2022/11/18 10:03:47;;;;;;;;;24.00;20.00;;;;;6.68;100.00;97946.44;6285884;20;2819086;-59
2022/11/18 10:06:25;;;;;;;;;35.00;24.33;;;;;6.51;100.00;97942.38;6280130;20;3605460;-59
2022/11/18 10:08:58;;;;;;;;;25.00;20.00;;;;;6.55;100.00;97946.50;6313017;20;2494516;-60
2022/11/18 10:11:56;;;;;;;;;21.50;20.00;;;;;6.74;100.00;97933.53;6283835;20;2830496;-60
2022/11/18 10:15:27;;;;;;;;;26.00;22.00;;;;;6.51;100.00;97937.03;6284077;20;2500304;-60
2022/11/18 10:18:48;;;;;;;;;32.00;26.00;;;;;6.52;100.00;97928.06;6279836;20;2850338;-59
2022/11/18 10:22:03;;;;;;;;;28.00;25.50;;;;;6.36;100.00;97915.84;6282876;20;2845080;-60
2022/11/18 10:24:49;;;;;;;;;37.33;28.00;;;;;6.57;100.00;97916.09;6285526;20;2861760;-59
2022/11/18 10:27:19;;;;;;;;;33.00;25.00;;;;;6.61;100.00;97919.41;6313488;20;2852404;-59
2022/11/18 10:29:57;;;;;;;;;30.00;19.50;;;;;6.58;100.00;97917.81;6280858;20;2844146;-59
2022/11/18 10:32:27;;;;;;;;;16.33;15.00;;;;;6.37;100.00;97917.56;6280231;20;3534736;-59
2022/11/18 10:34:58;;;;;;;;;36.33;29.00;;;;;6.22;100.00;97908.00;6319630;20;3599224;-60
2022/11/18 10:37:35;;;;;;;;;28.00;21.00;;;;;6.41;100.00;97898.69;6281773;20;2846109;-59
2022/11/18 10:40:28;;;;;;;;;20.00;17.00;;;;;6.45;100.00;97902.81;6281425;20;2838845;-58
2022/11/18 10:42:57;;;;;;;;;17.50;14.00;;;;;6.47;100.00;97903.53;6285429;20;2809013;-59
2022/11/18 10:45:31;;;;;;;;;14.50;14.50;;;;;6.25;100.00;97902.44;6287028;20;2798605;-59
2022/11/18 10:48:19;;;;;;;;;27.00;24.50;;;;;6.45;100.00;97909.00;6284253;20;2840948;-59
2022/11/18 10:50:50;;;;;;;;;20.00;17.00;;;;;6.85;100.00;97899.88;6287996;20;2836768;-60
2022/11/18 10:53:36;;;;;;;;;14.50;13.50;;;;;6.44;100.00;97890.44;6285703;20;2787993;-60
2022/11/18 10:56:09;;;;;;;;;34.00;24.00;;;;;6.64;100.00;97879.16;6281531;20;2857569;-59
2022/11/18 10:58:51;;;;;;;;;27.00;19.00;;;;;6.36;100.00;97862.53;6281098;20;2837790;-60
2022/11/18 11:01:26;;;;;;;;;21.00;19.50;;;;;6.18;100.00;97874.53;6282002;20;2826332;-60
2022/11/18 11:04:18;;;;;;;;;24.50;19.50;;;;;6.38;100.00;97873.94;6282296;20;2500344;-60
2022/11/18 11:06:46;;;;;;;;;16.00;16.00;;;;;6.47;100.00;97879.56;6282232;20;2826379;-60
2022/11/18 11:09:28;;;;;;;;;23.00;22.00;;;;;6.35;100.00;97876.00;6282987;20;2500513;-59
2022/11/18 11:12:16;;;;;;;;;12.50;9.50;;;;;6.53;100.00;97874.63;6284778;20;2787875;-60
2022/11/18 11:14:55;;;;;;;;;23.00;20.50;;;;;6.47;100.00;97879.56;6282508;20;2838825;-60
2022/11/18 11:17:47;;;;;;;;;42.00;35.00;;;;;6.59;100.00;97884.00;6280314;20;2856088;-60
2022/11/18 11:20:36;;;;;;;;;42.00;31.33;;;;;6.24;100.00;97879.44;6284290;20;2860664;-61
2022/11/18 11:23:15;;;;;;;;;18.00;15.50;;;;;6.20;100.00;97874.44;6314952;20;2812823;-59
2022/11/18 11:26:20;;;;;;;;;28.00;22.50;;;;;6.47;100.00;97880.41;6278208;20;2838813;-59
2022/11/18 11:30:10;;;;;;;;;5.00;3.33;;;;;6.38;100.00;97878.44;6278234;20;3455479;-59
2022/11/18 11:33:15;;;;;;;;;47.00;40.00;;;;;6.41;100.00;97877.34;6313860;20;2483564;-58
2022/11/18 11:36:29;;;;;;;;;29.50;22.00;;;;;6.35;100.00;97866.19;6277927;20;2491969;-58
2022/11/18 11:39:36;;;;;;;;;17.00;12.33;;;;;6.28;100.00;97867.59;6284839;20;3532610;-59
2022/11/18 11:42:54;;;;;;;;;22.50;21.00;;;;;6.40;100.00;97868.50;6314049;20;2829803;-58
2022/11/18 11:45:52;;;;;;;;;28.33;21.33;;;;;6.30;100.00;97863.00;6282976;20;2852593;-59
2022/11/18 11:48:43;;;;;;;;;21.33;20.00;;;;;6.28;100.00;97856.91;6315139;20;3561819;-56
2022/11/18 11:51:35;;;;;;;;;18.67;16.33;;;;;6.34;100.00;97851.13;6316176;20;3570166;-56
2022/11/18 11:54:56;;;;;;;;;16.00;14.00;;;;;6.36;100.00;97862.53;6314275;20;2806598;-56
2022/11/18 11:58:46;;;;;;;;;15.00;15.00;;;;;6.34;100.00;97852.94;6281447;20;2792086;-56
2022/11/18 12:01:43;;;;;;;;;7.50;7.50;;;;;6.14;100.00;97868.59;6277319;20;2745214;-57
2022/11/18 12:04:42;;;;;;;;;26.67;24.67;;;;;6.30;100.00;97860.34;6281820;20;3579498;-57